createdAt,value
2024-02-24T00:00:40.889Z,94324.00
2024-02-24T00:01:40.885Z,94323.00
2024-02-24T00:02:40.899Z,94325.00
2024-02-24T00:03:40.889Z,94323.00
2024-02-24T00:04:40.892Z,94323.00
2024-02-24T00:05:40.994Z,94322.00
2024-02-24T00:06:41.002Z,94323.00
2024-02-24T00:07:40.882Z,94325.00
2024-02-24T00:08:40.977Z,94324.00
2024-02-24T00:09:40.921Z,94328.00
2024-02-24T00:10:40.950Z,94327.00
2024-02-24T00:11:41.184Z,94325.00
2024-02-24T00:12:41.020Z,94324.00
2024-02-24T00:13:41.061Z,94324.00
2024-02-24T00:14:41.210Z,94322.00
2024-02-24T00:15:41.127Z,94322.00
2024-02-24T00:16:41.165Z,94321.00
2024-02-24T00:17:41.254Z,94320.00
2024-02-24T00:18:42.249Z,94317.00
2024-02-24T00:19:41.269Z,94317.00
2024-02-24T00:20:41.420Z,94314.00
2024-02-24T00:21:41.345Z,94312.00
2024-02-24T00:22:41.449Z,94312.00
2024-02-24T00:23:41.461Z,94312.00
2024-02-24T00:24:41.456Z,94314.00
2024-02-24T00:25:41.513Z,94315.00
2024-02-24T00:26:41.604Z,94316.00
2024-02-24T00:27:41.594Z,94319.00
2024-02-24T00:28:41.624Z,94321.00
2024-02-24T00:29:41.830Z,94323.00
2024-02-24T00:30:41.705Z,94321.00
2024-02-24T00:31:41.769Z,94326.00
2024-02-24T00:32:41.918Z,94323.00
2024-02-24T00:33:42.403Z,94326.00
2024-02-24T00:34:41.921Z,94325.00
2024-02-24T00:35:42.027Z,94329.00
2024-02-24T00:36:41.959Z,94331.00
2024-02-24T00:37:42.009Z,94330.00
2024-02-24T00:38:42.125Z,94332.00
2024-02-24T00:39:42.093Z,94335.00
2024-02-24T00:40:42.156Z,94339.00
2024-02-24T00:41:42.274Z,94339.00
2024-02-24T00:42:42.230Z,94342.00
2024-02-24T00:43:42.268Z,94343.00
2024-02-24T00:44:42.344Z,94344.00
2024-02-24T00:45:43.385Z,94345.00
2024-02-24T00:46:42.401Z,94345.00
2024-02-24T00:47:42.566Z,94346.00
2024-02-24T00:48:42.531Z,94349.00
2024-02-24T00:49:42.524Z,94351.00
2024-02-24T00:50:42.589Z,94352.00
2024-02-24T00:51:42.625Z,94352.00
2024-02-24T00:52:42.653Z,94352.00
2024-02-24T00:53:42.755Z,94354.00
2024-02-24T00:54:42.754Z,94355.00
2024-02-24T00:55:42.788Z,94353.00
2024-02-24T00:56:42.915Z,94354.00
2024-02-24T00:57:42.908Z,94350.00
2024-02-24T00:58:42.949Z,94351.00
2024-02-24T00:59:43.074Z,94350.00
2024-02-24T01:00:43.054Z,94350.00
2024-02-24T01:01:43.077Z,94350.00
2024-02-24T01:02:43.164Z,94355.00
2024-02-24T01:03:43.175Z,94353.00
2024-02-24T01:04:43.227Z,94356.00
2024-02-24T01:05:43.744Z,94358.00
2024-02-24T01:06:43.307Z,94357.00
2024-02-24T01:07:43.365Z,94359.00
2024-02-24T01:08:43.442Z,94360.00
2024-02-24T01:09:43.442Z,94360.00
2024-02-24T01:10:43.556Z,94360.00
2024-02-24T01:11:43.687Z,94360.00
2024-02-24T01:12:43.632Z,94365.00
2024-02-24T01:13:43.689Z,94363.00
2024-02-24T01:14:43.788Z,94367.00
2024-02-24T01:15:43.736Z,94371.00
2024-02-24T01:16:43.797Z,94374.00
2024-02-24T01:17:43.955Z,94376.00
2024-02-24T01:18:43.981Z,94372.00
2024-02-24T01:19:43.941Z,94375.00
2024-02-24T01:20:44.024Z,94376.00
2024-02-24T01:21:44.060Z,94379.00
2024-02-24T01:22:44.104Z,94378.00
2024-02-24T01:23:44.208Z,94379.00
2024-02-24T01:24:44.213Z,94380.00
2024-02-24T01:25:44.251Z,94378.00
2024-02-24T01:26:44.379Z,94381.00
2024-02-24T01:27:44.359Z,94378.00
2024-02-24T01:28:44.422Z,94379.00
2024-02-24T01:29:44.622Z,94379.00
2024-02-24T01:30:44.542Z,94381.00
2024-02-24T01:31:44.582Z,94381.00
2024-02-24T01:32:44.790Z,94379.00
2024-02-24T01:33:44.771Z,94377.00
2024-02-24T01:34:44.837Z,94378.00
2024-02-24T01:35:44.880Z,94376.00
2024-02-24T01:36:44.846Z,94377.00
2024-02-24T01:37:44.917Z,94379.00
2024-02-24T01:38:45.016Z,94377.00
2024-02-24T01:39:45.013Z,94377.00
2024-02-24T01:40:45.065Z,94378.00
2024-02-24T01:41:45.167Z,94375.00
2024-02-24T01:42:45.197Z,94374.00
2024-02-24T01:43:45.225Z,94373.00
2024-02-24T01:44:45.377Z,94376.00
2024-02-24T01:45:45.308Z,94375.00
2024-02-24T01:46:45.367Z,94379.00
2024-02-24T01:47:45.541Z,94381.00
2024-02-24T01:48:45.561Z,94381.00
2024-02-24T01:49:45.512Z,94382.00
2024-02-24T01:50:45.665Z,94383.00
2024-02-24T01:51:45.628Z,94384.00
2024-02-24T01:52:45.693Z,94382.00
2024-02-24T01:53:45.838Z,94384.00
2024-02-24T01:54:45.811Z,94384.00
2024-02-24T01:55:45.857Z,94386.00
2024-02-24T01:56:45.968Z,94385.00
2024-02-24T01:57:45.971Z,94385.00
2024-02-24T01:58:46.068Z,94387.00
2024-02-24T01:59:46.169Z,94388.00
2024-02-24T02:00:46.173Z,94388.00
2024-02-24T02:01:46.201Z,94392.00
2024-02-24T02:02:46.301Z,94390.00
2024-02-24T02:03:46.309Z,94392.00
2024-02-24T02:04:46.388Z,94391.00
2024-02-24T02:05:46.489Z,94392.00
2024-02-24T02:06:46.565Z,94388.00
2024-02-24T02:07:46.536Z,94391.00
2024-02-24T02:08:46.644Z,94391.00
2024-02-24T02:09:46.661Z,94388.00
2024-02-24T02:10:46.721Z,94387.00
2024-02-24T02:11:56.117Z,94391.00
2024-02-24T02:12:47.941Z,94392.00
2024-02-24T02:13:46.783Z,94395.00
2024-02-24T02:14:46.865Z,94396.00
2024-02-24T02:15:46.798Z,94395.00
2024-02-24T02:16:46.806Z,94396.00
2024-02-24T02:17:46.902Z,94398.00
2024-02-24T02:18:46.877Z,94394.00
2024-02-24T02:19:46.796Z,94394.00
2024-02-24T02:20:46.876Z,94393.00
2024-02-24T02:21:46.805Z,94394.00
2024-02-24T02:22:46.811Z,94393.00
2024-02-24T02:23:46.823Z,94392.00
2024-02-24T02:24:46.912Z,94393.00
2024-02-24T02:25:46.933Z,94397.00
2024-02-24T02:26:47.025Z,94397.00
2024-02-24T02:27:47.064Z,94399.00
2024-02-24T02:28:47.123Z,94401.00
2024-02-24T02:29:47.220Z,94405.00
2024-02-24T02:30:47.252Z,94406.00
2024-02-24T02:31:47.310Z,94408.00
2024-02-24T02:32:47.445Z,94409.00
2024-02-24T02:33:47.576Z,94410.00
2024-02-24T02:34:47.502Z,94408.00
2024-02-24T02:35:47.583Z,94410.00
2024-02-24T02:36:47.630Z,94409.00
2024-02-24T02:37:47.672Z,94407.00
2024-02-24T02:38:47.766Z,94410.00
2024-02-24T02:39:47.822Z,94409.00
2024-02-24T02:40:47.891Z,94408.00
2024-02-24T02:41:47.962Z,94409.00
2024-02-24T02:42:47.989Z,94407.00
2024-02-24T02:43:48.035Z,94410.00
2024-02-24T02:44:48.184Z,94409.00
2024-02-24T02:45:48.169Z,94411.00
2024-02-24T02:46:48.264Z,94411.00
2024-02-24T02:47:48.420Z,94411.00
2024-02-24T02:48:48.522Z,94414.00
2024-02-24T02:49:48.491Z,94414.00
2024-02-24T02:50:48.573Z,94412.00
2024-02-24T02:51:48.570Z,94416.00
2024-02-24T02:52:48.646Z,94416.00
2024-02-24T02:53:48.736Z,94419.00
2024-02-24T02:54:48.783Z,94420.00
2024-02-24T02:55:48.832Z,94421.00
2024-02-24T02:56:48.950Z,94421.00
2024-02-24T02:57:48.978Z,94422.00
2024-02-24T02:58:49.036Z,94421.00
2024-02-24T02:59:49.192Z,94421.00
2024-02-24T03:00:49.196Z,94419.00
2024-02-24T03:01:49.230Z,94419.00
2024-02-24T03:02:49.406Z,94419.00
2024-02-24T03:03:49.408Z,94421.00
2024-02-24T03:04:49.466Z,94420.00
2024-02-24T03:05:49.566Z,94423.00
2024-02-24T03:06:49.651Z,94423.00
2024-02-24T03:07:49.646Z,94423.00
2024-02-24T03:08:50.358Z,94423.00
2024-02-24T03:09:49.825Z,94424.00
2024-02-24T03:10:49.883Z,94422.00
2024-02-24T03:11:49.989Z,94424.00
2024-02-24T03:12:50.010Z,94422.00
2024-02-24T03:13:50.060Z,94423.00
2024-02-24T03:14:50.215Z,94421.00
2024-02-24T03:15:50.236Z,94421.00
2024-02-24T03:16:50.337Z,94422.00
2024-02-24T03:17:50.415Z,94421.00
2024-02-24T03:18:50.490Z,94425.00
2024-02-24T03:19:50.513Z,94425.00
2024-02-24T03:20:50.624Z,94428.00
2024-02-24T03:21:50.656Z,94427.00
2024-02-24T03:22:50.710Z,94428.00
2024-02-24T03:23:50.834Z,94423.00
2024-02-24T03:24:50.851Z,94424.00
2024-02-24T03:25:50.917Z,94424.00
2024-02-24T03:26:51.080Z,94424.00
2024-02-24T03:27:51.064Z,94424.00
2024-02-24T03:28:51.110Z,94426.00
2024-02-24T03:29:51.191Z,94425.00
2024-02-24T03:30:51.234Z,94423.00
2024-02-24T03:31:51.289Z,94428.00
2024-02-24T03:32:51.424Z,94433.00
2024-02-24T03:33:51.461Z,94434.00
2024-02-24T03:34:51.523Z,94438.00
2024-02-24T03:35:51.620Z,94441.00
2024-02-24T03:36:51.621Z,94440.00
2024-02-24T03:37:51.675Z,94442.00
2024-02-24T03:38:51.807Z,94441.00
2024-02-24T03:39:51.884Z,94440.00
2024-02-24T03:40:51.882Z,94441.00
2024-02-24T03:41:52.032Z,94441.00
2024-02-24T03:42:52.012Z,94443.00
2024-02-24T03:43:52.065Z,94445.00
2024-02-24T03:44:52.233Z,94449.00
2024-02-24T03:45:52.212Z,94448.00
2024-02-24T03:46:52.254Z,94449.00
2024-02-24T03:47:52.380Z,94449.00
2024-02-24T03:48:52.485Z,94453.00
2024-02-24T03:49:52.448Z,94453.00
2024-02-24T03:50:57.537Z,94453.00
2024-02-24T03:51:52.513Z,94457.00
2024-02-24T03:52:52.526Z,94457.00
2024-02-24T03:53:52.542Z,94459.00
2024-02-24T03:54:52.520Z,94460.00
2024-02-24T03:55:52.515Z,94461.00
2024-02-24T03:56:52.551Z,94462.00
2024-02-24T03:57:52.548Z,94463.00
2024-02-24T03:58:52.574Z,94460.00
2024-02-24T03:59:52.688Z,94460.00
2024-02-24T04:00:53.018Z,94457.00
2024-02-24T04:01:52.734Z,94456.00
2024-02-24T04:02:52.872Z,94457.00
2024-02-24T04:03:52.873Z,94455.00
2024-02-24T04:04:53.038Z,94458.00
2024-02-24T04:05:53.134Z,94459.00
2024-02-24T04:06:53.109Z,94458.00
2024-02-24T04:07:53.141Z,94459.00
2024-02-24T04:08:53.298Z,94458.00
2024-02-24T04:09:53.272Z,94456.00
2024-02-24T04:10:53.374Z,94455.00
2024-02-24T04:11:53.569Z,94457.00
2024-02-24T04:12:53.482Z,94455.00
2024-02-24T04:13:53.519Z,94458.00
2024-02-24T04:14:53.592Z,94459.00
2024-02-24T04:15:53.613Z,94461.00
2024-02-24T04:16:53.683Z,94462.00
2024-02-24T04:17:53.807Z,94464.00
2024-02-24T04:18:53.867Z,94463.00
2024-02-24T04:19:53.835Z,94465.00
2024-02-24T04:20:53.954Z,94463.00
2024-02-24T04:21:53.973Z,94466.00
2024-02-24T04:22:54.041Z,94467.00
2024-02-24T04:23:54.100Z,94467.00
2024-02-24T04:24:54.140Z,94467.00
2024-02-24T04:25:54.196Z,94466.00
2024-02-24T04:26:54.279Z,94464.00
2024-02-24T04:27:54.300Z,94467.00
2024-02-24T04:28:54.363Z,94466.00
2024-02-24T04:29:54.433Z,94467.00
2024-02-24T04:30:54.520Z,94464.00
2024-02-24T04:31:54.552Z,94463.00
2024-02-24T04:32:54.690Z,94465.00
2024-02-24T04:33:54.801Z,94466.00
2024-02-24T04:34:54.731Z,94464.00
2024-02-24T04:35:54.831Z,94466.00
2024-02-24T04:36:54.835Z,94468.00
2024-02-24T04:38:02.079Z,94468.00
2024-02-24T04:39:02.077Z,94471.00
2024-02-24T04:40:02.070Z,94471.00
2024-02-24T04:41:02.062Z,94474.00
2024-02-24T04:42:02.088Z,94473.00
2024-02-24T04:43:02.075Z,94475.00
2024-02-24T04:44:02.083Z,94474.00
2024-02-24T04:45:02.078Z,94477.00
2024-02-24T04:46:02.084Z,94475.00
2024-02-24T04:47:02.074Z,94475.00
2024-02-24T04:48:02.257Z,94476.00
2024-02-24T04:49:02.184Z,94476.00
2024-02-24T04:50:02.094Z,94477.00
2024-02-24T04:51:03.401Z,94477.00
2024-02-24T04:52:02.096Z,94479.00
2024-02-24T04:53:02.083Z,94480.00
2024-02-24T04:54:02.113Z,94480.00
2024-02-24T04:55:02.113Z,94480.00
2024-02-24T04:56:02.090Z,94477.00
2024-02-24T04:57:02.102Z,94475.00
2024-02-24T04:58:02.113Z,94474.00
2024-02-24T04:59:02.090Z,94472.00
2024-02-24T05:00:02.107Z,94474.00
2024-02-24T05:01:02.163Z,94473.00
2024-02-24T05:02:02.100Z,94477.00
2024-02-24T05:03:02.104Z,94480.00
2024-02-24T05:04:02.114Z,94483.00
2024-02-24T05:05:02.095Z,94485.00
2024-02-24T05:06:02.252Z,94489.00
2024-02-24T05:07:02.143Z,94488.00
2024-02-24T05:08:02.146Z,94491.00
2024-02-24T05:09:02.235Z,94492.00
2024-02-24T05:10:02.143Z,94493.00
2024-02-24T05:11:02.180Z,94495.00
2024-02-24T05:12:02.192Z,94493.00
2024-02-24T05:13:05.990Z,94495.00
2024-02-24T05:14:02.178Z,94496.00
2024-02-24T05:15:02.168Z,94498.00
2024-02-24T05:16:02.259Z,94501.00
2024-02-24T05:17:02.168Z,94504.00
2024-02-24T05:18:02.281Z,94506.00
2024-02-24T05:19:02.197Z,94507.00
2024-02-24T05:20:02.180Z,94508.00
2024-02-24T05:21:02.193Z,94508.00
2024-02-24T05:22:02.201Z,94507.00
2024-02-24T05:23:02.180Z,94506.00
2024-02-24T05:24:02.192Z,94506.00
2024-02-24T05:25:02.190Z,94507.00
2024-02-24T05:26:02.204Z,94506.00
2024-02-24T05:27:02.191Z,94504.00
2024-02-24T05:28:02.196Z,94502.00
2024-02-24T05:29:02.202Z,94502.00
2024-02-24T05:30:02.204Z,94502.00
2024-02-24T05:31:02.189Z,94505.00
2024-02-24T05:32:02.208Z,94504.00
2024-02-24T05:33:02.286Z,94508.00
2024-02-24T05:35:02.204Z,94507.00
2024-02-24T05:36:02.221Z,94505.00
2024-02-24T05:37:02.218Z,94506.00
2024-02-24T05:38:02.207Z,94502.00
2024-02-24T05:39:02.220Z,94503.00
2024-02-24T05:40:02.216Z,94502.00
2024-02-24T05:41:02.215Z,94503.00
2024-02-24T05:42:02.221Z,94505.00
2024-02-24T05:43:02.212Z,94508.00
2024-02-24T05:44:02.229Z,94506.00
2024-02-24T05:45:02.224Z,94506.00
2024-02-24T05:46:03.135Z,94508.00
2024-02-24T05:47:02.386Z,94506.00
2024-02-24T05:48:02.297Z,94510.00
2024-02-24T05:49:02.322Z,94511.00
2024-02-24T05:50:02.224Z,94512.00
2024-02-24T05:51:02.239Z,94514.00
2024-02-24T05:52:02.237Z,94515.00
2024-02-24T05:53:02.234Z,94517.00
2024-02-24T05:54:02.301Z,94519.00
2024-02-24T05:55:02.235Z,94520.00
2024-02-24T05:56:02.247Z,94519.00
2024-02-24T05:57:05.461Z,94521.00
2024-02-24T05:58:02.255Z,94521.00
2024-02-24T05:59:02.245Z,94524.00
2024-02-24T06:00:02.246Z,94525.00
2024-02-24T06:01:02.275Z,94526.00
2024-02-24T06:02:02.249Z,94526.00
2024-02-24T06:03:02.346Z,94526.00
2024-02-24T06:04:02.302Z,94524.00
2024-02-24T06:05:02.257Z,94522.00
2024-02-24T06:06:02.350Z,94523.00
2024-02-24T06:07:02.343Z,94525.00
2024-02-24T06:08:02.305Z,94524.00
2024-02-24T06:09:02.293Z,94524.00
2024-02-24T06:10:02.276Z,94524.00
2024-02-24T06:11:02.280Z,94527.00
2024-02-24T06:12:02.298Z,94528.00
2024-02-24T06:13:02.271Z,94529.00
2024-02-24T06:14:02.278Z,94531.00
2024-02-24T06:15:02.291Z,94533.00
2024-02-24T06:16:02.282Z,94537.00
2024-02-24T06:17:02.283Z,94537.00
2024-02-24T06:18:02.599Z,94539.00
2024-02-24T06:19:02.327Z,94540.00
2024-02-24T06:20:02.281Z,94541.00
2024-02-24T06:21:02.344Z,94541.00
2024-02-24T06:22:02.395Z,94538.00
2024-02-24T06:23:02.329Z,94536.00
2024-02-24T06:24:02.296Z,94533.00
2024-02-24T06:25:02.282Z,94531.00
2024-02-24T06:26:02.296Z,94530.00
2024-02-24T06:27:02.284Z,94530.00
2024-02-24T06:28:02.297Z,94533.00
2024-02-24T06:29:02.305Z,94536.00
2024-02-24T06:30:02.323Z,94539.00
2024-02-24T06:31:02.286Z,94543.00
2024-02-24T06:32:02.300Z,94541.00
2024-02-24T06:33:02.445Z,94543.00
2024-02-24T06:34:06.080Z,94544.00
2024-02-24T06:35:03.309Z,94545.00
2024-02-24T06:36:02.378Z,94548.00
2024-02-24T06:37:02.353Z,94555.00
2024-02-24T06:38:02.313Z,94556.00
2024-02-24T06:39:02.316Z,94559.00
2024-02-24T06:40:02.312Z,94559.00
2024-02-24T06:41:02.302Z,94556.00
2024-02-24T06:42:02.339Z,94555.00
2024-02-24T06:43:02.337Z,94553.00
2024-02-24T06:44:02.325Z,94552.00
2024-02-24T06:45:02.334Z,94555.00
2024-02-24T06:46:02.318Z,94557.00
2024-02-24T06:47:06.556Z,94559.00
2024-02-24T06:48:03.380Z,94561.00
2024-02-24T06:49:02.569Z,94561.00
2024-02-24T06:50:02.326Z,94563.00
2024-02-24T06:51:02.383Z,94565.00
2024-02-24T06:52:02.337Z,94564.00
2024-02-24T06:53:02.324Z,94566.00
2024-02-24T06:54:02.357Z,94567.00
2024-02-24T06:55:02.342Z,94571.00
2024-02-24T06:56:02.336Z,94572.00
2024-02-24T06:57:02.383Z,94575.00
2024-02-24T06:58:02.358Z,94575.00
2024-02-24T06:59:02.346Z,94577.00
2024-02-24T07:00:02.346Z,94578.00
2024-02-24T07:01:02.372Z,94580.00
2024-02-24T07:02:02.343Z,94583.00
2024-02-24T07:03:02.484Z,94586.00
2024-02-24T07:04:02.348Z,94587.00
2024-02-24T07:05:02.382Z,94589.00
2024-02-24T07:06:03.107Z,94590.00
2024-02-24T07:07:02.398Z,94592.00
2024-02-24T07:08:02.391Z,94593.00
2024-02-24T07:09:02.353Z,94594.00
2024-02-24T07:10:02.370Z,94596.00
2024-02-24T07:11:02.437Z,94598.00
2024-02-24T07:12:02.503Z,94604.00
2024-02-24T07:13:02.419Z,94606.00
2024-02-24T07:14:02.352Z,94613.00
2024-02-24T07:15:02.377Z,94617.00
2024-02-24T07:16:02.347Z,94619.00
2024-02-24T07:17:02.353Z,94622.00
2024-02-24T07:18:02.435Z,94621.00
2024-02-24T07:19:02.452Z,94621.00
2024-02-24T07:20:02.355Z,94619.00
2024-02-24T07:21:04.094Z,94621.00
2024-02-24T07:22:02.367Z,94615.00
2024-02-24T07:23:02.391Z,94614.00
2024-02-24T07:24:02.360Z,94612.00
2024-02-24T07:25:02.384Z,94610.00
2024-02-24T07:26:02.378Z,94611.00
2024-02-24T07:27:02.421Z,94611.00
2024-02-24T07:28:02.382Z,94612.00
2024-02-24T07:29:02.384Z,94615.00
2024-02-24T07:30:02.393Z,94617.00
2024-02-24T07:31:02.384Z,94618.00
2024-02-24T07:32:02.380Z,94619.00
2024-02-24T07:33:02.597Z,94622.00
2024-02-24T07:34:02.654Z,94624.00
2024-02-24T07:35:02.461Z,94623.00
2024-02-24T07:36:02.461Z,94626.00
2024-02-24T07:37:02.452Z,94628.00
2024-02-24T07:38:02.446Z,94630.00
2024-02-24T07:39:02.512Z,94630.00
2024-02-24T07:40:02.502Z,94631.00
2024-02-24T07:41:02.484Z,94635.00
2024-02-24T07:42:02.465Z,94638.00
2024-02-24T07:43:02.486Z,94639.00
2024-02-24T07:44:02.486Z,94641.00
2024-02-24T07:45:02.576Z,94643.00
2024-02-24T07:46:02.538Z,94644.00
2024-02-24T07:47:02.505Z,94646.00
2024-02-24T07:48:02.688Z,94646.00
2024-02-24T07:49:02.589Z,94647.00
2024-02-24T07:50:02.531Z,94648.00
2024-02-24T07:51:02.562Z,94648.00
2024-02-24T07:52:02.569Z,94647.00
2024-02-24T07:53:02.585Z,94650.00
2024-02-24T07:54:02.581Z,94653.00
2024-02-24T07:55:02.613Z,94653.00
2024-02-24T07:56:02.600Z,94657.00
2024-02-24T07:57:02.639Z,94655.00
2024-02-24T07:58:02.617Z,94654.00
2024-02-24T07:59:02.658Z,94653.00
2024-02-24T08:00:02.647Z,94650.00
2024-02-24T08:01:02.734Z,94649.00
2024-02-24T08:02:02.659Z,94648.00
2024-02-24T08:03:02.692Z,94648.00
2024-02-24T08:04:02.767Z,94650.00
2024-02-24T08:05:02.754Z,94651.00
2024-02-24T08:06:02.700Z,94650.00
2024-02-24T08:07:02.951Z,94651.00
2024-02-24T08:08:02.682Z,94654.00
2024-02-24T08:09:02.783Z,94656.00
2024-02-24T08:10:02.703Z,94657.00
2024-02-24T08:11:02.729Z,94660.00
2024-02-24T08:12:02.903Z,94657.00
2024-02-24T08:13:02.752Z,94659.00
2024-02-24T08:14:02.757Z,94662.00
2024-02-24T08:15:02.859Z,94663.00
2024-02-24T08:16:02.827Z,94667.00
2024-02-24T08:17:02.785Z,94673.00
2024-02-24T08:18:02.851Z,94674.00
2024-02-24T08:19:03.026Z,94677.00
2024-02-24T08:20:02.824Z,94680.00
2024-02-24T08:21:02.945Z,94682.00
2024-02-24T08:22:02.913Z,94687.00
2024-02-24T08:23:02.910Z,94688.00
2024-02-24T08:24:02.904Z,94693.00
2024-02-24T08:25:02.934Z,94691.00
2024-02-24T08:26:02.959Z,94694.00
2024-02-24T08:27:03.049Z,94696.00
2024-02-24T08:28:03.049Z,94700.00
2024-02-24T08:29:03.149Z,94705.00
2024-02-24T08:30:03.247Z,94706.00
2024-02-24T08:31:03.259Z,94706.00
2024-02-24T08:32:03.301Z,94707.00
2024-02-24T08:33:03.418Z,94709.00
2024-02-24T08:34:03.500Z,94712.00
2024-02-24T08:35:03.440Z,94715.00
2024-02-24T08:36:03.431Z,94716.00
2024-02-24T08:37:03.406Z,94720.00
2024-02-24T08:38:03.415Z,94723.00
2024-02-24T08:39:03.666Z,94723.00
2024-02-24T08:40:04.300Z,94728.00
2024-02-24T08:41:03.527Z,94731.00
2024-02-24T08:42:03.659Z,94734.00
2024-02-24T08:43:03.587Z,94734.00
2024-02-24T08:44:03.631Z,94732.00
2024-02-24T08:45:03.684Z,94732.00
2024-02-24T08:46:03.729Z,94735.00
2024-02-24T08:47:03.752Z,94735.00
2024-02-24T08:48:03.846Z,94738.00
2024-02-24T08:49:03.802Z,94735.00
2024-02-24T08:50:03.972Z,94738.00
2024-02-24T08:51:04.022Z,94739.00
2024-02-24T08:52:03.920Z,94739.00
2024-02-24T08:53:03.976Z,94739.00
2024-02-24T08:54:04.028Z,94740.00
2024-02-24T08:55:04.079Z,94738.00
2024-02-24T08:56:04.115Z,94738.00
2024-02-24T08:57:04.177Z,94737.00
2024-02-24T08:58:04.193Z,94736.00
2024-02-24T08:59:04.233Z,94733.00
2024-02-24T09:00:04.288Z,94737.00
2024-02-24T09:01:04.460Z,94734.00
2024-02-24T09:02:04.364Z,94738.00
2024-02-24T09:03:04.416Z,94737.00
2024-02-24T09:04:04.567Z,94740.00
2024-02-24T09:05:04.452Z,94742.00
2024-02-24T09:06:04.710Z,94746.00
2024-02-24T09:07:04.589Z,94746.00
2024-02-24T09:08:04.564Z,94747.00
2024-02-24T09:09:04.634Z,94745.00
2024-02-24T09:10:06.453Z,94745.00
2024-02-24T09:11:15.376Z,94743.00
2024-02-24T09:12:15.308Z,94741.00
2024-02-24T09:13:15.277Z,94742.00
2024-02-24T09:14:15.306Z,94742.00
2024-02-24T09:15:15.272Z,94745.00
2024-02-24T09:16:15.267Z,94743.00
2024-02-24T09:17:15.359Z,94744.00
2024-02-24T09:18:15.322Z,94742.00
2024-02-24T09:19:15.324Z,94744.00
2024-02-24T09:20:15.272Z,94744.00
2024-02-24T09:21:15.298Z,94744.00
2024-02-24T09:22:15.297Z,94744.00
2024-02-24T09:23:15.317Z,94742.00
2024-02-24T09:24:15.274Z,94744.00
2024-02-24T09:25:15.330Z,94742.00
2024-02-24T09:26:15.311Z,94744.00
2024-02-24T09:27:15.280Z,94744.00
2024-02-24T09:28:15.290Z,94741.00
2024-02-24T09:29:15.316Z,94740.00
2024-02-24T09:30:15.291Z,94740.00
2024-02-24T09:31:15.323Z,94739.00
2024-02-24T09:32:15.313Z,94743.00
2024-02-24T09:33:15.469Z,94744.00
2024-02-24T09:34:15.403Z,94743.00
2024-02-24T09:35:15.315Z,94748.00
2024-02-24T09:36:15.301Z,94750.00
2024-02-24T09:37:15.315Z,94751.00
2024-02-24T09:38:15.342Z,94753.00
2024-02-24T09:39:15.382Z,94758.00
2024-02-24T09:40:15.302Z,94757.00
2024-02-24T09:41:15.344Z,94760.00
2024-02-24T09:42:15.305Z,94758.00
2024-02-24T09:43:15.314Z,94763.00
2024-02-24T09:44:15.331Z,94763.00
2024-02-24T09:45:15.336Z,94765.00
2024-02-24T09:46:15.311Z,94765.00
2024-02-24T09:47:15.365Z,94767.00
2024-02-24T09:48:15.502Z,94768.00
2024-02-24T09:49:15.465Z,94772.00
2024-02-24T09:50:15.353Z,94772.00
2024-02-24T09:51:15.332Z,94774.00
2024-02-24T09:52:15.336Z,94774.00
2024-02-24T09:53:15.369Z,94772.00
2024-02-24T09:54:15.335Z,94776.00
2024-02-24T09:55:15.328Z,94775.00
2024-02-24T09:56:15.369Z,94776.00
2024-02-24T09:57:15.329Z,94779.00
2024-02-24T09:58:17.781Z,94776.00
2024-02-24T09:59:15.366Z,94775.00
2024-02-24T10:00:15.356Z,94772.00
2024-02-24T10:01:15.409Z,94774.00
2024-02-24T10:02:15.372Z,94776.00
2024-02-24T10:03:15.478Z,94779.00
2024-02-24T10:04:15.351Z,94780.00
2024-02-24T10:05:15.438Z,94781.00
2024-02-24T10:06:15.422Z,94783.00
2024-02-24T10:07:15.347Z,94787.00
2024-02-24T10:08:15.365Z,94789.00
2024-02-24T10:09:15.345Z,94791.00
2024-02-24T10:10:15.354Z,94792.00
2024-02-24T10:11:15.474Z,94791.00
2024-02-24T10:12:15.482Z,94790.00
2024-02-24T10:13:15.348Z,94789.00
2024-02-24T10:14:15.375Z,94789.00
2024-02-24T10:15:15.369Z,94788.00
2024-02-24T10:16:15.362Z,94787.00
2024-02-24T10:17:15.384Z,94787.00
2024-02-24T10:18:15.526Z,94792.00
2024-02-24T10:19:15.480Z,94794.00
2024-02-24T10:20:15.420Z,94794.00
2024-02-24T10:21:15.359Z,94797.00
2024-02-24T10:22:15.376Z,94796.00
2024-02-24T10:23:15.392Z,94798.00
2024-02-24T10:24:15.371Z,94799.00
2024-02-24T10:25:15.362Z,94799.00
2024-02-24T10:26:15.419Z,94800.00
2024-02-24T10:27:15.366Z,94798.00
2024-02-24T10:28:15.372Z,94799.00
2024-02-24T10:29:15.409Z,94796.00
2024-02-24T10:30:15.379Z,94796.00
2024-02-24T10:31:15.399Z,94798.00
2024-02-24T10:32:15.423Z,94795.00
2024-02-24T10:33:15.483Z,94795.00
2024-02-24T10:34:15.506Z,94796.00
2024-02-24T10:35:15.416Z,94798.00
2024-02-24T10:36:15.439Z,94797.00
2024-02-24T10:37:15.375Z,94795.00
2024-02-24T10:38:23.663Z,94798.00
2024-02-24T10:39:16.441Z,94796.00
2024-02-24T10:40:15.389Z,94795.00
2024-02-24T10:41:15.430Z,94794.00
2024-02-24T10:42:15.420Z,94795.00
2024-02-24T10:43:15.394Z,94796.00
2024-02-24T10:44:22.525Z,94798.00
2024-02-24T10:45:16.460Z,94801.00
2024-02-24T10:46:15.404Z,94801.00
2024-02-24T10:47:15.421Z,94801.00
2024-02-24T10:48:15.541Z,94800.00
2024-02-24T10:49:15.526Z,94800.00
2024-02-24T10:50:15.443Z,94800.00
2024-02-24T10:51:15.419Z,94799.00
2024-02-24T10:52:15.433Z,94798.00
2024-02-24T10:53:15.520Z,94798.00
2024-02-24T10:54:15.537Z,94798.00
2024-02-24T10:55:15.425Z,94797.00
2024-02-24T10:56:15.435Z,94797.00
2024-02-24T10:57:15.423Z,94798.00
2024-02-24T10:58:15.419Z,94796.00
2024-02-24T10:59:15.427Z,94797.00
2024-02-24T11:00:15.434Z,94794.00
2024-02-24T11:01:15.447Z,94795.00
2024-02-24T11:02:15.494Z,94795.00
2024-02-24T11:03:15.438Z,94799.00
2024-02-24T11:04:15.477Z,94797.00
2024-02-24T11:05:15.508Z,94796.00
2024-02-24T11:06:15.555Z,94796.00
2024-02-24T11:07:15.566Z,94796.00
2024-02-24T11:08:15.528Z,94794.00
2024-02-24T11:09:15.490Z,94793.00
2024-02-24T11:10:15.515Z,94791.00
2024-02-24T11:11:15.724Z,94789.00
2024-02-24T11:12:15.572Z,94790.00
2024-02-24T11:13:15.525Z,94790.00
2024-02-24T11:14:15.602Z,94788.00
2024-02-24T11:15:15.574Z,94787.00
2024-02-24T11:16:15.591Z,94790.00
2024-02-24T11:17:15.637Z,94788.00
2024-02-24T11:18:16.612Z,94786.00
2024-02-24T11:19:15.741Z,94787.00
2024-02-24T11:20:15.666Z,94784.00
2024-02-24T11:21:15.654Z,94782.00
2024-02-24T11:22:15.663Z,94780.00
2024-02-24T11:23:15.713Z,94778.00
2024-02-24T11:24:17.113Z,94776.00
2024-02-24T11:25:15.743Z,94776.00
2024-02-24T11:26:15.767Z,94776.00
2024-02-24T11:27:15.785Z,94776.00
2024-02-24T11:28:15.794Z,94777.00
2024-02-24T11:29:15.817Z,94776.00
2024-02-24T11:30:15.833Z,94775.00
2024-02-24T11:31:15.828Z,94772.00
2024-02-24T11:32:15.894Z,94770.00
2024-02-24T11:33:16.058Z,94767.00
2024-02-24T11:34:15.910Z,94766.00
2024-02-24T11:35:16.488Z,94767.00
2024-02-24T11:36:15.889Z,94768.00
2024-02-24T11:37:15.891Z,94769.00
2024-02-24T11:38:15.931Z,94770.00
2024-02-24T11:39:15.909Z,94770.00
2024-02-24T11:40:15.935Z,94772.00
2024-02-24T11:41:15.971Z,94772.00
2024-02-24T11:42:15.980Z,94770.00
2024-02-24T11:43:15.999Z,94770.00
2024-02-24T11:44:16.062Z,94769.00
2024-02-24T11:45:16.040Z,94768.00
2024-02-24T11:46:16.087Z,94767.00